VOCB/CJB METAR and TAF weather

Enter ICAO airport designator
Station Type Date Time Source
VOCB METAR 2024/05/29 00:00 UTC NOAA

VOCB 290000Z 23006KT 4000 BR FEW012 SCT080 25/23 Q1008 NOSIG


Station Type Date Time Source
VOCB Decoded METAR 2024/05/29 00:00 UTC NOAA

Coimbatore / Peelamedu, India (VOCB) 11-02N 077-03E 399M
May 28, 2024 - 08:00 PM EDT / 2024.05.29 0000 UTC
Wind: from the SW (230 degrees) at 7 MPH (6 KT):0
Visibility: 2 mile(s):0
Sky conditions: partly cloudy
Weather: mist
Temperature: 77 F (25 C)
Dew Point: 73 F (23 C)
Relative Humidity: 88%
Pressure (altimeter): 29.77 in. Hg (1008 hPa)
ob: VOCB 290000Z 23006KT 4000 BR FEW012 SCT080 25/23 Q1008 NOSIG
cycle: 0

Station Type Date Time Source
VOCB TAF 2024/05/28 18:00 UTC NOAA